sensor_id;sensor_type;location;lat;lon;timestamp;P1;durP1;ratioP1;P2;durP2;ratioP2
70806;SDS011;58882;52.170;5.386;2023-02-28T00:01:19;7.28;;;2.30;;
70806;SDS011;58882;52.170;5.386;2023-02-28T00:03:59;8.15;;;2.30;;
70806;SDS011;58882;52.170;5.386;2023-02-28T00:06:49;6.43;;;2.10;;
70806;SDS011;58882;52.170;5.386;2023-02-28T00:09:29;6.93;;;2.10;;
70806;SDS011;58882;52.170;5.386;2023-02-28T00:12:16;6.28;;;2.40;;
70806;SDS011;58882;52.170;5.386;2023-02-28T00:14:56;7.65;;;2.00;;
70806;SDS011;58882;52.170;5.386;2023-02-28T00:17:50;7.30;;;2.17;;
70806;SDS011;58882;52.170;5.386;2023-02-28T00:23:18;4.57;;;1.80;;
70806;SDS011;58882;52.170;5.386;2023-02-28T00:25:51;6.13;;;2.03;;
70806;SDS011;58882;52.170;5.386;2023-02-28T00:28:51;7.03;;;2.28;;
70806;SDS011;58882;52.170;5.386;2023-02-28T00:31:25;6.68;;;2.10;;
70806;SDS011;58882;52.170;5.386;2023-02-28T00:34:19;6.32;;;2.00;;
70806;SDS011;58882;52.170;5.386;2023-02-28T00:36:59;5.57;;;2.15;;
70806;SDS011;58882;52.170;5.386;2023-02-28T00:39:53;5.60;;;2.15;;
70806;SDS011;58882;52.170;5.386;2023-02-28T00:42:33;5.10;;;1.90;;
70806;SDS011;58882;52.170;5.386;2023-02-28T00:47:56;5.32;;;1.90;;
70806;SDS011;58882;52.170;5.386;2023-02-28T00:53:44;8.30;;;2.10;;
70806;SDS011;58882;52.170;5.386;2023-02-28T00:56:24;4.95;;;2.00;;
70806;SDS011;58882;52.170;5.386;2023-02-28T00:59:11;4.93;;;2.28;;
70806;SDS011;58882;52.170;5.386;2023-02-28T01:01:53;5.63;;;2.05;;
70806;SDS011;58882;52.170;5.386;2023-02-28T01:04:47;6.47;;;2.33;;
70806;SDS011;58882;52.170;5.386;2023-02-28T01:07:29;7.70;;;2.00;;
70806;SDS011;58882;52.170;5.386;2023-02-28T01:10:16;6.10;;;2.20;;
70806;SDS011;58882;52.170;5.386;2023-02-28T01:12:49;5.25;;;1.92;;
70806;SDS011;58882;52.170;5.386;2023-02-28T01:15:45;7.28;;;2.42;;
70806;SDS011;58882;52.170;5.386;2023-02-28T01:18:30;5.22;;;2.13;;
70806;SDS011;58882;52.170;5.386;2023-02-28T01:21:24;7.05;;;2.20;;
70806;SDS011;58882;52.170;5.386;2023-02-28T01:26:52;4.05;;;1.80;;
70806;SDS011;58882;52.170;5.386;2023-02-28T01:29:25;6.03;;;2.05;;
70806;SDS011;58882;52.170;5.386;2023-02-28T01:32:19;6.35;;;2.05;;
70806;SDS011;58882;52.170;5.386;2023-02-28T01:34:59;5.82;;;2.00;;
70806;SDS011;58882;52.170;5.386;2023-02-28T01:37:46;5.68;;;2.00;;
70806;SDS011;58882;52.170;5.386;2023-02-28T01:40:26;5.95;;;1.98;;
70806;SDS011;58882;52.170;5.386;2023-02-28T01:43:20;6.00;;;1.98;;
70806;SDS011;58882;52.170;5.386;2023-02-28T01:46:01;6.00;;;2.13;;
70806;SDS011;58882;52.170;5.386;2023-02-28T01:48:50;5.05;;;1.90;;
70806;SDS011;58882;52.170;5.386;2023-02-28T01:51:42;5.45;;;2.10;;
70806;SDS011;58882;52.170;5.386;2023-02-28T01:54:31;5.93;;;2.10;;
70806;SDS011;58882;52.170;5.386;2023-02-28T01:57:21;3.92;;;1.70;;
70806;SDS011;58882;52.170;5.386;2023-02-28T02:02:58;6.68;;;2.00;;
70806;SDS011;58882;52.170;5.386;2023-02-28T02:05:42;6.30;;;2.10;;
70806;SDS011;58882;52.170;5.386;2023-02-28T02:08:36;5.18;;;1.90;;
70806;SDS011;58882;52.170;5.386;2023-02-28T02:11:09;5.50;;;2.00;;
70806;SDS011;58882;52.170;5.386;2023-02-28T02:14:17;5.57;;;1.92;;
70806;SDS011;58882;52.170;5.386;2023-02-28T02:20:58;7.18;;;2.15;;
70806;SDS011;58882;52.170;5.386;2023-02-28T02:23:33;7.95;;;2.20;;
70806;SDS011;58882;52.170;5.386;2023-02-28T02:29:47;4.50;;;1.80;;
70806;SDS011;58882;52.170;5.386;2023-02-28T02:36:24;5.53;;;1.90;;
70806;SDS011;58882;52.170;5.386;2023-02-28T02:39:21;8.73;;;2.00;;
70806;SDS011;58882;52.170;5.386;2023-02-28T02:42:38;5.20;;;1.88;;
70806;SDS011;58882;52.170;5.386;2023-02-28T02:45:26;7.05;;;2.10;;
70806;SDS011;58882;52.170;5.386;2023-02-28T02:48:35;4.97;;;1.90;;
70806;SDS011;58882;52.170;5.386;2023-02-28T02:51:18;7.07;;;2.17;;
70806;SDS011;58882;52.170;5.386;2023-02-28T02:54:31;4.80;;;1.77;;
70806;SDS011;58882;52.170;5.386;2023-02-28T02:57:14;7.80;;;2.20;;
70806;SDS011;58882;52.170;5.386;2023-02-28T03:00:06;5.70;;;2.20;;
70806;SDS011;58882;52.170;5.386;2023-02-28T03:02:48;5.63;;;2.13;;
70806;SDS011;58882;52.170;5.386;2023-02-28T03:08:26;7.50;;;2.47;;
70806;SDS011;58882;52.170;5.386;2023-02-28T03:11:15;9.88;;;2.40;;
70806;SDS011;58882;52.170;5.386;2023-02-28T03:14:08;6.13;;;2.20;;
70806;SDS011;58882;52.170;5.386;2023-02-28T03:17:23;8.20;;;2.67;;
70806;SDS011;58882;52.170;5.386;2023-02-28T03:26:02;5.45;;;2.03;;
70806;SDS011;58882;52.170;5.386;2023-02-28T03:29:22;7.65;;;2.25;;
70806;SDS011;58882;52.170;5.386;2023-02-28T03:32:13;6.72;;;2.28;;
70806;SDS011;58882;52.170;5.386;2023-02-28T03:38:06;5.70;;;1.90;;
70806;SDS011;58882;52.170;5.386;2023-02-28T03:41:04;6.55;;;2.28;;
70806;SDS011;58882;52.170;5.386;2023-02-28T03:44:11;4.90;;;2.05;;
70806;SDS011;58882;52.170;5.386;2023-02-28T03:46:57;8.73;;;2.40;;
70806;SDS011;58882;52.170;5.386;2023-02-28T03:49:56;6.45;;;2.30;;
70806;SDS011;58882;52.170;5.386;2023-02-28T03:52:45;7.00;;;2.28;;
70806;SDS011;58882;52.170;5.386;2023-02-28T03:55:34;6.68;;;2.05;;
70806;SDS011;58882;52.170;5.386;2023-02-28T03:58:28;7.03;;;2.25;;
70806;SDS011;58882;52.170;5.386;2023-02-28T04:01:28;7.70;;;2.30;;
70806;SDS011;58882;52.170;5.386;2023-02-28T04:04:21;7.30;;;2.42;;
70806;SDS011;58882;52.170;5.386;2023-02-28T04:07:08;5.25;;;2.22;;
70806;SDS011;58882;52.170;5.386;2023-02-28T04:09:57;8.27;;;2.30;;
70806;SDS011;58882;52.170;5.386;2023-02-28T04:12:38;5.35;;;1.88;;
70806;SDS011;58882;52.170;5.386;2023-02-28T04:15:25;6.45;;;2.38;;
70806;SDS011;58882;52.170;5.386;2023-02-28T04:18:06;4.93;;;2.10;;
70806;SDS011;58882;52.170;5.386;2023-02-28T04:20:53;5.03;;;2.20;;
70806;SDS011;58882;52.170;5.386;2023-02-28T04:23:33;6.70;;;2.05;;
70806;SDS011;58882;52.170;5.386;2023-02-28T04:26:20;4.32;;;1.90;;
70806;SDS011;58882;52.170;5.386;2023-02-28T04:29:00;6.30;;;2.15;;
70806;SDS011;58882;52.170;5.386;2023-02-28T04:31:49;8.18;;;2.10;;
70806;SDS011;58882;52.170;5.386;2023-02-28T04:34:29;4.65;;;1.92;;
70806;SDS011;58882;52.170;5.386;2023-02-28T04:37:18;3.97;;;1.90;;
70806;SDS011;58882;52.170;5.386;2023-02-28T04:39:58;3.92;;;2.00;;
70806;SDS011;58882;52.170;5.386;2023-02-28T04:42:45;6.22;;;2.20;;
70806;SDS011;58882;52.170;5.386;2023-02-28T04:45:25;5.05;;;1.73;;
70806;SDS011;58882;52.170;5.386;2023-02-28T04:50:54;15.35;;;2.65;;
70806;SDS011;58882;52.170;5.386;2023-02-28T04:53:41;4.85;;;1.70;;
70806;SDS011;58882;52.170;5.386;2023-02-28T04:56:22;3.40;;;1.70;;
70806;SDS011;58882;52.170;5.386;2023-02-28T05:01:50;3.78;;;1.70;;
70806;SDS011;58882;52.170;5.386;2023-02-28T05:04:37;3.60;;;1.88;;
70806;SDS011;58882;52.170;5.386;2023-02-28T05:07:17;4.53;;;1.73;;
70806;SDS011;58882;52.170;5.386;2023-02-28T05:10:04;9.60;;;2.80;;
70806;SDS011;58882;52.170;5.386;2023-02-28T05:12:44;4.45;;;1.73;;
70806;SDS011;58882;52.170;5.386;2023-02-28T05:15:31;5.78;;;1.90;;
70806;SDS011;58882;52.170;5.386;2023-02-28T05:18:11;6.90;;;1.83;;
70806;SDS011;58882;52.170;5.386;2023-02-28T05:20:59;6.47;;;2.10;;
70806;SDS011;58882;52.170;5.386;2023-02-28T05:23:41;6.03;;;1.50;;
70806;SDS011;58882;52.170;5.386;2023-02-28T05:26:28;4.93;;;1.67;;
70806;SDS011;58882;52.170;5.386;2023-02-28T05:29:09;4.55;;;1.77;;
70806;SDS011;58882;52.170;5.386;2023-02-28T05:31:56;4.20;;;1.83;;
70806;SDS011;58882;52.170;5.386;2023-02-28T05:34:39;6.03;;;1.90;;
70806;SDS011;58882;52.170;5.386;2023-02-28T05:37:27;4.78;;;1.70;;
70806;SDS011;58882;52.170;5.386;2023-02-28T05:40:07;3.33;;;1.50;;
70806;SDS011;58882;52.170;5.386;2023-02-28T05:45:35;5.05;;;1.55;;
70806;SDS011;58882;52.170;5.386;2023-02-28T05:48:29;6.75;;;1.67;;
70806;SDS011;58882;52.170;5.386;2023-02-28T05:51:02;6.15;;;1.52;;
70806;SDS011;58882;52.170;5.386;2023-02-28T05:53:59;3.20;;;1.40;;
70806;SDS011;58882;52.170;5.386;2023-02-28T05:56:34;5.30;;;1.70;;
70806;SDS011;58882;52.170;5.386;2023-02-28T05:59:30;3.60;;;1.50;;
70806;SDS011;58882;52.170;5.386;2023-02-28T06:02:03;4.90;;;1.80;;
70806;SDS011;58882;52.170;5.386;2023-02-28T06:04:57;6.35;;;1.70;;
70806;SDS011;58882;52.170;5.386;2023-02-28T06:07:30;6.55;;;1.67;;
70806;SDS011;58882;52.170;5.386;2023-02-28T06:10:24;5.78;;;1.67;;
70806;SDS011;58882;52.170;5.386;2023-02-28T06:13:06;4.57;;;1.67;;
70806;SDS011;58882;52.170;5.386;2023-02-28T06:15:53;5.65;;;1.75;;
70806;SDS011;58882;52.170;5.386;2023-02-28T06:18:26;6.70;;;1.90;;
70806;SDS011;58882;52.170;5.386;2023-02-28T06:21:20;4.95;;;1.77;;
70806;SDS011;58882;52.170;5.386;2023-02-28T06:23:53;4.63;;;1.40;;
70806;SDS011;58882;52.170;5.386;2023-02-28T06:26:48;6.82;;;1.60;;
70806;SDS011;58882;52.170;5.386;2023-02-28T06:29:44;5.25;;;1.65;;
70806;SDS011;58882;52.170;5.386;2023-02-28T06:32:17;4.38;;;1.67;;
70806;SDS011;58882;52.170;5.386;2023-02-28T06:35:11;5.15;;;1.92;;
70806;SDS011;58882;52.170;5.386;2023-02-28T06:37:44;3.65;;;1.70;;
70806;SDS011;58882;52.170;5.386;2023-02-28T06:40:38;5.18;;;1.90;;
70806;SDS011;58882;52.170;5.386;2023-02-28T06:43:18;5.63;;;2.00;;
70806;SDS011;58882;52.170;5.386;2023-02-28T06:46:13;5.97;;;1.85;;
70806;SDS011;58882;52.170;5.386;2023-02-28T06:48:54;9.38;;;2.10;;
70806;SDS011;58882;52.170;5.386;2023-02-28T06:51:48;3.45;;;1.63;;
70806;SDS011;58882;52.170;5.386;2023-02-28T06:54:28;7.38;;;1.95;;
70806;SDS011;58882;52.170;5.386;2023-02-28T06:57:22;8.43;;;1.88;;
70806;SDS011;58882;52.170;5.386;2023-02-28T06:59:58;4.68;;;2.17;;
70806;SDS011;58882;52.170;5.386;2023-02-28T07:02:54;3.78;;;1.67;;
70806;SDS011;58882;52.170;5.386;2023-02-28T07:05:35;5.20;;;2.10;;
70806;SDS011;58882;52.170;5.386;2023-02-28T07:11:04;5.90;;;2.05;;
70806;SDS011;58882;52.170;5.386;2023-02-28T07:13:51;10.45;;;1.80;;
70806;SDS011;58882;52.170;5.386;2023-02-28T07:16:35;7.32;;;1.80;;
70806;SDS011;58882;52.170;5.386;2023-02-28T07:19:22;4.70;;;1.65;;
70806;SDS011;58882;52.170;5.386;2023-02-28T07:22:02;5.38;;;1.90;;
70806;SDS011;58882;52.170;5.386;2023-02-28T07:24:57;5.68;;;1.92;;
70806;SDS011;58882;52.170;5.386;2023-02-28T07:27:30;6.55;;;1.80;;
70806;SDS011;58882;52.170;5.386;2023-02-28T07:30:24;4.63;;;1.83;;
70806;SDS011;58882;52.170;5.386;2023-02-28T07:33:04;3.85;;;1.90;;
70806;SDS011;58882;52.170;5.386;2023-02-28T07:36:01;4.50;;;2.00;;
70806;SDS011;58882;52.170;5.386;2023-02-28T07:38:49;5.45;;;2.05;;
70806;SDS011;58882;52.170;5.386;2023-02-28T07:41:36;2.90;;;1.80;;
70806;SDS011;58882;52.170;5.386;2023-02-28T07:44:25;5.72;;;2.05;;
70806;SDS011;58882;52.170;5.386;2023-02-28T07:47:13;4.80;;;2.28;;
70806;SDS011;58882;52.170;5.386;2023-02-28T07:49:53;5.28;;;2.00;;
70806;SDS011;58882;52.170;5.386;2023-02-28T07:52:40;3.90;;;1.80;;
70806;SDS011;58882;52.170;5.386;2023-02-28T07:55:21;4.63;;;2.03;;
70806;SDS011;58882;52.170;5.386;2023-02-28T07:58:08;5.72;;;2.25;;
70806;SDS011;58882;52.170;5.386;2023-02-28T08:00:48;6.38;;;2.00;;
70806;SDS011;58882;52.170;5.386;2023-02-28T08:03:35;6.38;;;1.98;;
70806;SDS011;58882;52.170;5.386;2023-02-28T08:06:17;4.75;;;2.17;;
70806;SDS011;58882;52.170;5.386;2023-02-28T08:09:07;5.82;;;2.15;;
70806;SDS011;58882;52.170;5.386;2023-02-28T08:11:47;6.00;;;2.10;;
70806;SDS011;58882;52.170;5.386;2023-02-28T08:14:34;4.93;;;1.90;;
70806;SDS011;58882;52.170;5.386;2023-02-28T08:17:14;6.40;;;2.28;;
70806;SDS011;58882;52.170;5.386;2023-02-28T08:20:01;4.38;;;2.05;;
70806;SDS011;58882;52.170;5.386;2023-02-28T08:22:41;7.57;;;2.30;;
70806;SDS011;58882;52.170;5.386;2023-02-28T08:25:28;4.43;;;2.38;;
70806;SDS011;58882;52.170;5.386;2023-02-28T08:28:08;4.57;;;2.13;;
70806;SDS011;58882;52.170;5.386;2023-02-28T08:30:55;4.03;;;1.92;;
70806;SDS011;58882;52.170;5.386;2023-02-28T08:33:35;3.80;;;1.80;;
70806;SDS011;58882;52.170;5.386;2023-02-28T08:36:24;4.55;;;2.10;;
70806;SDS011;58882;52.170;5.386;2023-02-28T08:39:08;5.88;;;2.22;;
70806;SDS011;58882;52.170;5.386;2023-02-28T08:41:55;4.28;;;1.95;;
70806;SDS011;58882;52.170;5.386;2023-02-28T08:44:39;5.95;;;1.95;;
70806;SDS011;58882;52.170;5.386;2023-02-28T08:47:26;4.82;;;1.80;;
70806;SDS011;58882;52.170;5.386;2023-02-28T08:50:06;4.18;;;1.95;;
70806;SDS011;58882;52.170;5.386;2023-02-28T08:53:01;6.10;;;2.35;;
70806;SDS011;58882;52.170;5.386;2023-02-28T08:55:41;4.18;;;2.03;;
70806;SDS011;58882;52.170;5.386;2023-02-28T08:58:28;5.72;;;2.10;;
70806;SDS011;58882;52.170;5.386;2023-02-28T09:01:07;5.38;;;1.95;;
70806;SDS011;58882;52.170;5.386;2023-02-28T09:04:05;4.47;;;2.08;;
70806;SDS011;58882;52.170;5.386;2023-02-28T09:06:41;6.40;;;2.10;;
70806;SDS011;58882;52.170;5.386;2023-02-28T09:09:35;5.53;;;1.92;;
70806;SDS011;58882;52.170;5.386;2023-02-28T09:12:15;4.38;;;1.95;;
70806;SDS011;58882;52.170;5.386;2023-02-28T09:17:42;3.83;;;1.67;;
70806;SDS011;58882;52.170;5.386;2023-02-28T09:20:39;3.97;;;1.85;;
70806;SDS011;58882;52.170;5.386;2023-02-28T09:23:20;4.43;;;1.90;;
70806;SDS011;58882;52.170;5.386;2023-02-28T09:26:07;4.18;;;1.80;;
70806;SDS011;58882;52.170;5.386;2023-02-28T09:28:52;3.95;;;1.70;;
70806;SDS011;58882;52.170;5.386;2023-02-28T09:31:47;3.17;;;1.50;;
70806;SDS011;58882;52.170;5.386;2023-02-28T09:37:21;2.70;;;1.42;;
70806;SDS011;58882;52.170;5.386;2023-02-28T09:39:54;3.55;;;1.40;;
70806;SDS011;58882;52.170;5.386;2023-02-28T09:45:30;2.03;;;1.20;;
70806;SDS011;58882;52.170;5.386;2023-02-28T09:48:35;4.15;;;1.25;;
70806;SDS011;58882;52.170;5.386;2023-02-28T09:54:21;2.88;;;1.30;;
70806;SDS011;58882;52.170;5.386;2023-02-28T09:59:59;2.25;;;1.30;;
70806;SDS011;58882;52.170;5.386;2023-02-28T10:08:52;2.58;;;1.30;;
70806;SDS011;58882;52.170;5.386;2023-02-28T10:11:50;2.90;;;1.30;;
70806;SDS011;58882;52.170;5.386;2023-02-28T10:14:32;3.50;;;1.30;;
70806;SDS011;58882;52.170;5.386;2023-02-28T10:17:28;4.50;;;1.50;;
70806;SDS011;58882;52.170;5.386;2023-02-28T10:20:27;3.38;;;1.42;;
70806;SDS011;58882;52.170;5.386;2023-02-28T10:23:13;2.85;;;1.20;;
70806;SDS011;58882;52.170;5.386;2023-02-28T10:26:13;2.53;;;1.20;;
70806;SDS011;58882;52.170;5.386;2023-02-28T10:28:56;2.88;;;1.20;;
70806;SDS011;58882;52.170;5.386;2023-02-28T10:31:43;2.42;;;1.20;;
70806;SDS011;58882;52.170;5.386;2023-02-28T10:34:23;3.15;;;1.30;;
70806;SDS011;58882;52.170;5.386;2023-02-28T10:37:18;2.90;;;1.30;;
70806;SDS011;58882;52.170;5.386;2023-02-28T10:39:59;2.72;;;1.30;;
70806;SDS011;58882;52.170;5.386;2023-02-28T10:45:36;3.42;;;1.40;;
70806;SDS011;58882;52.170;5.386;2023-02-28T10:48:30;2.47;;;1.20;;
70806;SDS011;58882;52.170;5.386;2023-02-28T10:51:16;1.92;;;1.10;;
70806;SDS011;58882;52.170;5.386;2023-02-28T10:54:05;2.15;;;1.10;;
70806;SDS011;58882;52.170;5.386;2023-02-28T11:00:11;2.38;;;1.08;;
70806;SDS011;58882;52.170;5.386;2023-02-28T11:02:46;1.80;;;1.00;;
70806;SDS011;58882;52.170;5.386;2023-02-28T11:05:40;1.95;;;1.15;;
70806;SDS011;58882;52.170;5.386;2023-02-28T11:08:16;2.17;;;1.13;;
70806;SDS011;58882;52.170;5.386;2023-02-28T11:11:11;2.83;;;1.10;;
70806;SDS011;58882;52.170;5.386;2023-02-28T11:13:44;3.00;;;1.00;;
70806;SDS011;58882;52.170;5.386;2023-02-28T11:16:40;1.73;;;1.02;;
70806;SDS011;58882;52.170;5.386;2023-02-28T11:19:27;2.42;;;1.33;;
70806;SDS011;58882;52.170;5.386;2023-02-28T11:22:27;1.88;;;1.20;;
70806;SDS011;58882;52.170;5.386;2023-02-28T11:25:06;4.53;;;1.35;;
70806;SDS011;58882;52.170;5.386;2023-02-28T11:28:24;2.97;;;1.50;;
70806;SDS011;58882;52.170;5.386;2023-02-28T11:36:34;1.92;;;1.20;;
70806;SDS011;58882;52.170;5.386;2023-02-28T11:39:34;2.78;;;1.23;;
70806;SDS011;58882;52.170;5.386;2023-02-28T11:54:05;2.67;;;1.30;;
70806;SDS011;58882;52.170;5.386;2023-02-28T11:57:00;5.70;;;1.40;;
70806;SDS011;58882;52.170;5.386;2023-02-28T12:00:06;2.60;;;1.38;;
70806;SDS011;58882;52.170;5.386;2023-02-28T12:03:27;4.47;;;1.33;;
70806;SDS011;58882;52.170;5.386;2023-02-28T12:06:15;3.17;;;1.38;;
70806;SDS011;58882;52.170;5.386;2023-02-28T12:24:55;4.50;;;1.30;;
70806;SDS011;58882;52.170;5.386;2023-02-28T12:27:52;0.98;;;0.82;;
70806;SDS011;58882;52.170;5.386;2023-02-28T12:30:35;3.13;;;1.23;;
70806;SDS011;58882;52.170;5.386;2023-02-28T12:33:27;2.17;;;1.10;;
70806;SDS011;58882;52.170;5.386;2023-02-28T12:36:15;4.50;;;1.33;;
70806;SDS011;58882;52.170;5.386;2023-02-28T12:42:02;3.28;;;1.20;;
70806;SDS011;58882;52.170;5.386;2023-02-28T12:45:01;4.32;;;1.20;;
70806;SDS011;58882;52.170;5.386;2023-02-28T12:47:43;2.80;;;1.17;;
70806;SDS011;58882;52.170;5.386;2023-02-28T12:50:40;2.83;;;1.20;;
70806;SDS011;58882;52.170;5.386;2023-02-28T12:53:26;2.28;;;1.10;;
70806;SDS011;58882;52.170;5.386;2023-02-28T12:59:49;3.30;;;1.00;;
70806;SDS011;58882;52.170;5.386;2023-02-28T13:09:13;4.07;;;1.10;;
70806;SDS011;58882;52.170;5.386;2023-02-28T13:12:09;3.67;;;1.10;;
70806;SDS011;58882;52.170;5.386;2023-02-28T13:15:06;1.88;;;1.00;;
70806;SDS011;58882;52.170;5.386;2023-02-28T13:18:01;1.55;;;0.95;;
70806;SDS011;58882;52.170;5.386;2023-02-28T13:20:47;2.50;;;1.20;;
70806;SDS011;58882;52.170;5.386;2023-02-28T13:29:30;2.22;;;1.08;;
70806;SDS011;58882;52.170;5.386;2023-02-28T13:37:47;2.15;;;1.00;;
70806;SDS011;58882;52.170;5.386;2023-02-28T13:40:34;3.53;;;1.10;;
70806;SDS011;58882;52.170;5.386;2023-02-28T13:43:17;2.90;;;1.15;;
70806;SDS011;58882;52.170;5.386;2023-02-28T13:46:14;3.25;;;1.20;;
70806;SDS011;58882;52.170;5.386;2023-02-28T13:48:54;2.55;;;1.13;;
70806;SDS011;58882;52.170;5.386;2023-02-28T13:51:45;1.73;;;1.10;;
70806;SDS011;58882;52.170;5.386;2023-02-28T13:55:02;1.98;;;1.10;;
70806;SDS011;58882;52.170;5.386;2023-02-28T14:07:31;2.25;;;1.50;;
70806;SDS011;58882;52.170;5.386;2023-02-28T14:10:43;2.10;;;1.00;;
70806;SDS011;58882;52.170;5.386;2023-02-28T14:16:35;2.15;;;1.27;;
70806;SDS011;58882;52.170;5.386;2023-02-28T14:19:13;2.67;;;1.30;;
70806;SDS011;58882;52.170;5.386;2023-02-28T14:22:29;3.03;;;1.50;;
70806;SDS011;58882;52.170;5.386;2023-02-28T14:25:32;3.55;;;1.75;;
70806;SDS011;58882;52.170;5.386;2023-02-28T14:31:18;2.70;;;1.00;;
70806;SDS011;58882;52.170;5.386;2023-02-28T14:37:10;2.63;;;1.60;;
70806;SDS011;58882;52.170;5.386;2023-02-28T14:40:03;2.78;;;1.38;;
70806;SDS011;58882;52.170;5.386;2023-02-28T14:42:48;4.43;;;1.60;;
70806;SDS011;58882;52.170;5.386;2023-02-28T14:45:42;3.20;;;1.40;;
70806;SDS011;58882;52.170;5.386;2023-02-28T14:48:22;2.40;;;1.33;;
70806;SDS011;58882;52.170;5.386;2023-02-28T14:51:10;3.15;;;1.10;;
70806;SDS011;58882;52.170;5.386;2023-02-28T14:53:57;2.60;;;1.40;;
70806;SDS011;58882;52.170;5.386;2023-02-28T14:56:54;3.53;;;1.52;;
70806;SDS011;58882;52.170;5.386;2023-02-28T14:59:35;2.95;;;1.35;;
70806;SDS011;58882;52.170;5.386;2023-02-28T15:02:34;2.58;;;1.40;;
70806;SDS011;58882;52.170;5.386;2023-02-28T15:13:44;3.45;;;1.50;;
70806;SDS011;58882;52.170;5.386;2023-02-28T15:19:39;1.90;;;1.23;;
70806;SDS011;58882;52.170;5.386;2023-02-28T15:22:24;4.45;;;1.42;;
70806;SDS011;58882;52.170;5.386;2023-02-28T15:25:22;2.70;;;1.58;;
70806;SDS011;58882;52.170;5.386;2023-02-28T15:28:02;2.35;;;1.30;;
70806;SDS011;58882;52.170;5.386;2023-02-28T15:30:57;2.22;;;1.10;;
70806;SDS011;58882;52.170;5.386;2023-02-28T15:33:39;3.05;;;1.17;;
70806;SDS011;58882;52.170;5.386;2023-02-28T15:36:40;2.30;;;1.15;;
70806;SDS011;58882;52.170;5.386;2023-02-28T15:39:21;3.88;;;1.20;;
70806;SDS011;58882;52.170;5.386;2023-02-28T15:42:16;3.67;;;1.48;;
70806;SDS011;58882;52.170;5.386;2023-02-28T15:45:25;2.63;;;1.40;;
70806;SDS011;58882;52.170;5.386;2023-02-28T15:48:14;2.05;;;1.30;;
70806;SDS011;58882;52.170;5.386;2023-02-28T15:51:08;5.20;;;1.40;;
70806;SDS011;58882;52.170;5.386;2023-02-28T15:54:12;4.03;;;1.52;;
70806;SDS011;58882;52.170;5.386;2023-02-28T15:57:06;3.75;;;1.50;;
70806;SDS011;58882;52.170;5.386;2023-02-28T15:59:59;3.55;;;1.33;;
70806;SDS011;58882;52.170;5.386;2023-02-28T16:02:37;1.85;;;1.10;;
70806;SDS011;58882;52.170;5.386;2023-02-28T16:05:31;2.53;;;1.33;;
70806;SDS011;58882;52.170;5.386;2023-02-28T16:11:01;2.35;;;1.40;;
70806;SDS011;58882;52.170;5.386;2023-02-28T16:13:34;2.70;;;1.35;;
70806;SDS011;58882;52.170;5.386;2023-02-28T16:16:28;3.97;;;1.42;;
70806;SDS011;58882;52.170;5.386;2023-02-28T16:19:02;3.42;;;1.50;;
70806;SDS011;58882;52.170;5.386;2023-02-28T16:24:29;4.53;;;1.40;;
70806;SDS011;58882;52.170;5.386;2023-02-28T16:30:07;4.00;;;1.60;;
70806;SDS011;58882;52.170;5.386;2023-02-28T16:33:05;3.85;;;1.25;;
70806;SDS011;58882;52.170;5.386;2023-02-28T16:35:40;3.67;;;1.25;;
70806;SDS011;58882;52.170;5.386;2023-02-28T16:41:07;3.40;;;1.27;;
70806;SDS011;58882;52.170;5.386;2023-02-28T16:44:07;3.40;;;1.20;;
70806;SDS011;58882;52.170;5.386;2023-02-28T16:46:53;4.18;;;1.33;;
70806;SDS011;58882;52.170;5.386;2023-02-28T16:49:40;3.00;;;1.40;;
70806;SDS011;58882;52.170;5.386;2023-02-28T16:52:25;4.40;;;1.35;;
70806;SDS011;58882;52.170;5.386;2023-02-28T16:55:12;4.97;;;1.70;;
70806;SDS011;58882;52.170;5.386;2023-02-28T17:00:41;2.78;;;1.48;;
70806;SDS011;58882;52.170;5.386;2023-02-28T17:06:21;4.45;;;1.40;;
70806;SDS011;58882;52.170;5.386;2023-02-28T17:08:57;5.18;;;1.70;;
70806;SDS011;58882;52.170;5.386;2023-02-28T17:11:52;3.53;;;1.42;;
70806;SDS011;58882;52.170;5.386;2023-02-28T17:14:25;3.80;;;1.40;;
70806;SDS011;58882;52.170;5.386;2023-02-28T17:20:01;3.28;;;1.50;;
70806;SDS011;58882;52.170;5.386;2023-02-28T17:22:56;5.50;;;1.77;;
70806;SDS011;58882;52.170;5.386;2023-02-28T17:25:29;5.82;;;1.73;;
70806;SDS011;58882;52.170;5.386;2023-02-28T17:28:24;4.90;;;1.90;;
70806;SDS011;58882;52.170;5.386;2023-02-28T17:33:51;5.18;;;1.60;;
70806;SDS011;58882;52.170;5.386;2023-02-28T17:39:20;7.60;;;2.03;;
70806;SDS011;58882;52.170;5.386;2023-02-28T17:44:47;3.80;;;1.70;;
70806;SDS011;58882;52.170;5.386;2023-02-28T17:50:16;5.30;;;2.03;;
70806;SDS011;58882;52.170;5.386;2023-02-28T17:52:59;6.40;;;2.65;;
70806;SDS011;58882;52.170;5.386;2023-02-28T17:58:33;3.75;;;1.95;;
70806;SDS011;58882;52.170;5.386;2023-02-28T18:01:20;5.30;;;2.15;;
70806;SDS011;58882;52.170;5.386;2023-02-28T18:04:02;5.00;;;2.05;;
70806;SDS011;58882;52.170;5.386;2023-02-28T18:09:36;4.72;;;2.33;;
70806;SDS011;58882;52.170;5.386;2023-02-28T18:12:23;4.88;;;2.30;;
70806;SDS011;58882;52.170;5.386;2023-02-28T18:17:50;4.85;;;1.90;;
70806;SDS011;58882;52.170;5.386;2023-02-28T18:20:30;6.15;;;2.58;;
70806;SDS011;58882;52.170;5.386;2023-02-28T18:23:17;5.72;;;2.65;;
70806;SDS011;58882;52.170;5.386;2023-02-28T18:25:57;6.53;;;2.40;;
70806;SDS011;58882;52.170;5.386;2023-02-28T18:28:44;4.82;;;2.30;;
70806;SDS011;58882;52.170;5.386;2023-02-28T18:31:25;5.63;;;2.38;;
70806;SDS011;58882;52.170;5.386;2023-02-28T18:37:01;7.38;;;2.33;;
70806;SDS011;58882;52.170;5.386;2023-02-28T18:39:57;6.10;;;2.53;;
70806;SDS011;58882;52.170;5.386;2023-02-28T18:42:37;5.20;;;2.55;;
70806;SDS011;58882;52.170;5.386;2023-02-28T18:45:33;6.00;;;2.60;;
70806;SDS011;58882;52.170;5.386;2023-02-28T18:48:07;5.70;;;2.53;;
70806;SDS011;58882;52.170;5.386;2023-02-28T18:51:14;7.30;;;2.85;;
70806;SDS011;58882;52.170;5.386;2023-02-28T18:53:49;7.47;;;2.80;;
70806;SDS011;58882;52.170;5.386;2023-02-28T18:56:43;6.70;;;2.63;;
70806;SDS011;58882;52.170;5.386;2023-02-28T18:59:16;10.30;;;2.60;;
70806;SDS011;58882;52.170;5.386;2023-02-28T19:02:10;6.38;;;2.58;;
70806;SDS011;58882;52.170;5.386;2023-02-28T19:07:38;5.03;;;2.58;;
70806;SDS011;58882;52.170;5.386;2023-02-28T19:10:12;7.28;;;3.00;;
70806;SDS011;58882;52.170;5.386;2023-02-28T19:13:07;6.32;;;2.65;;
70806;SDS011;58882;52.170;5.386;2023-02-28T19:15:40;5.80;;;2.85;;
70806;SDS011;58882;52.170;5.386;2023-02-28T19:18:36;7.32;;;2.70;;
70806;SDS011;58882;52.170;5.386;2023-02-28T19:21:18;6.22;;;2.67;;
70806;SDS011;58882;52.170;5.386;2023-02-28T19:24:06;8.35;;;2.90;;
70806;SDS011;58882;52.170;5.386;2023-02-28T19:26:39;7.22;;;2.85;;
70806;SDS011;58882;52.170;5.386;2023-02-28T19:29:33;5.88;;;2.90;;
70806;SDS011;58882;52.170;5.386;2023-02-28T19:32:13;6.43;;;2.80;;
70806;SDS011;58882;52.170;5.386;2023-02-28T19:35:00;22.02;;;2.80;;
70806;SDS011;58882;52.170;5.386;2023-02-28T19:37:37;8.60;;;4.15;;
70806;SDS011;58882;52.170;5.386;2023-02-28T19:40:32;13.60;;;4.13;;
70806;SDS011;58882;52.170;5.386;2023-02-28T19:43:12;17.13;;;4.03;;
70806;SDS011;58882;52.170;5.386;2023-02-28T19:45:59;9.35;;;3.80;;
70806;SDS011;58882;52.170;5.386;2023-02-28T19:48:39;7.72;;;3.42;;
70806;SDS011;58882;52.170;5.386;2023-02-28T19:51:34;8.75;;;3.90;;
70806;SDS011;58882;52.170;5.386;2023-02-28T19:54:09;9.80;;;3.97;;
70806;SDS011;58882;52.170;5.386;2023-02-28T19:57:03;11.73;;;3.88;;
70806;SDS011;58882;52.170;5.386;2023-02-28T19:59:36;10.18;;;4.20;;
70806;SDS011;58882;52.170;5.386;2023-02-28T20:02:30;11.07;;;4.00;;
70806;SDS011;58882;52.170;5.386;2023-02-28T20:08:04;10.88;;;3.78;;
70806;SDS011;58882;52.170;5.386;2023-02-28T20:13:32;7.72;;;3.80;;
70806;SDS011;58882;52.170;5.386;2023-02-28T20:16:13;8.02;;;3.90;;
70806;SDS011;58882;52.170;5.386;2023-02-28T20:21:41;8.93;;;3.90;;
70806;SDS011;58882;52.170;5.386;2023-02-28T20:24:28;8.02;;;4.03;;